Eagle Varna — 9V6189 — position and weather

sailwx.info

Track history (hours):
 
Tides and Currents Weather Stations Pressure Air Temp Water Temp Dewpoint Dewpoint Depression Visibility Wind Speed Wind Dir Waves Ship Positions

Eagle Varna

Last reported at 2018-Feb-23 15:20 UTC. Time now 2018-Feb-23 16:01 UTC.
Position N 22°17' E 121°35'.

Length 333 m; draft 11 m.

Type: Tanker. MMSI: 566848000.

Date/timePositionNaut miles runAvg speedWind from/ knotsBaromVisibWave heightAir tempDewpointWater temp
2018-Feb-23 15:20N 22°17' E 121°35'615.1
2018-Feb-23 14:54N 22°21' E 121°41'715.2
2018-Feb-23 14:28N 22°23' E 121°47'714.2
2018-Feb-23 14:00N 22°26' E 121°54'8712.9
2018-Feb-23 07:17N 23°30' E 122°57'414.1
2018-Feb-23 07:00N 23°34' E 122°59'714.7
2018-Feb-23 06:30N 23°40' E 123°03'815.2
2018-Feb-23 06:00N 23°47' E 123°07'815.3
2018-Feb-23 05:30N 23°54' E 123°11'815.1
2018-Feb-23 05:00N 24°01' E 123°13'714.9
2018-Feb-23 04:30N 24°08' E 123°15'714.8
2018-Feb-23 04:00N 24°15' E 123°16'815.1
2018-Feb-23 03:30N 24°23' E 123°19'814.7
2018-Feb-23 02:59N 24°30' E 123°22'714.2
2018-Feb-23 02:30N 24°36' E 123°24'714.6
2018-Feb-23 02:00N 24°43' E 123°28'714.8
2018-Feb-23 01:30N 24°49' E 123°31'714.4
2018-Feb-23 01:00N 24°56' E 123°34'  
2018-Feb-20 17:55N 38°00' E 122°05'3113.9
2018-Feb-20 15:42N 38°17' E 121°32'  
Track history (hours):
 
Tides and Currents Weather Stations Pressure Air Temp Water Temp Dewpoint Dewpoint Depression Visibility Wind Speed Wind Dir Waves Ship Positions

Eagle Varna

Last reported at 2018-Feb-23 15:20 UTC. Time now 2018-Feb-23 16:01 UTC.
Position N 22°17' E 121°35'.

Length 333 m; draft 11 m.

Type: Tanker. MMSI: 566848000.

Date/timePositionNaut miles runAvg speedWind from/ knotsBaromVisibWave heightAir tempDewpointWater temp
2018-Feb-23 15:20N 22°17' E 121°35'615.1
2018-Feb-23 14:54N 22°21' E 121°41'715.2
2018-Feb-23 14:28N 22°23' E 121°47'714.2
2018-Feb-23 14:00N 22°26' E 121°54'8712.9
2018-Feb-23 07:17N 23°30' E 122°57'414.1
2018-Feb-23 07:00N 23°34' E 122°59'714.7
2018-Feb-23 06:30N 23°40' E 123°03'815.2
2018-Feb-23 06:00N 23°47' E 123°07'815.3
2018-Feb-23 05:30N 23°54' E 123°11'815.1
2018-Feb-23 05:00N 24°01' E 123°13'714.9
2018-Feb-23 04:30N 24°08' E 123°15'714.8
2018-Feb-23 04:00N 24°15' E 123°16'815.1
2018-Feb-23 03:30N 24°23' E 123°19'814.7
2018-Feb-23 02:59N 24°30' E 123°22'714.2
2018-Feb-23 02:30N 24°36' E 123°24'714.6
2018-Feb-23 02:00N 24°43' E 123°28'714.8
2018-Feb-23 01:30N 24°49' E 123°31'714.4
2018-Feb-23 01:00N 24°56' E 123°34'  
2018-Feb-20 17:55N 38°00' E 122°05'3113.9
2018-Feb-20 15:42N 38°17' E 121°32'  

Dump ship's entire track history